Home > Products > Valid Products > TAF

000
FTUS45 KVEF 011444 AAA
TAFLAS
TAF AMD
KLAS 011444Z 0115/0212 VRB05KT P6SM SCT100 BKN140
     FM011700 04005KT P6SM SCT080 BKN120
     FM012100 09006KT P6SM VCSH SCT080 BKN120
     FM020300 21005KT P6SM FEW080 SCT120=



000
FTUS45 KVEF 011330 AAA
TAFVGT
TAF AMD
KVGT 011330Z 0114/0212 35010KT P6SM SCT080 BKN120
     FM011800 03008KT P6SM VCSH SCT080 BKN120
     FM012200 07007KT P6SM VCSH SCT080 BKN120
     FM020300 04005KT P6SM FEW100 SCT120=



000
FTUS45 KVEF 011120
TAFVGT
TAF
KVGT 011120Z 0112/0212 35010G18KT P6SM SCT100 BKN120
     FM011800 03008KT P6SM VCSH SCT080 BKN120
     FM012200 07007KT P6SM VCSH SCT080 BKN120
     FM020300 04005KT P6SM FEW100 SCT120=



000
FTUS45 KVEF 011120
TAFBIH
TAF
KBIH 011120Z 0112/0212 29010KT P6SM FEW100
     FM011500 35010KT P6SM SCT100
     FM011900 17007KT P6SM FEW080 BKN100
     FM020500 32006KT P6SM FEW100=



000
FTUS45 KVEF 011120
TAFEED
TAF
KEED 011120Z 0112/0212 35010KT P6SM FEW080 SCT100
     FM011500 02007KT P6SM SCT100
     FM020300 VRB05KT P6SM SCT100=



000
FTUS45 KVEF 011120
TAFVGT
TAF
KVGT 011120Z 0112/0212 35010G18KT P6SM SCT100 BKN120
     FM011800 03008KT P6SM VCSH SCT080 BKN120
     FM012200 07007KT P6SM VCSH SCT080 BKN120
     FM020300 04005KT P6SM FEW100 SCT120=



000
FTUS45 KVEF 011120
TAFEED
TAF
KEED 011120Z 0112/0212 35010KT P6SM FEW080 SCT100
     FM011500 02007KT P6SM SCT100
     FM020300 VRB05KT P6SM SCT100=



000
FTUS45 KVEF 011120
TAFBIH
TAF
KBIH 011120Z 0112/0212 29010KT P6SM FEW100
     FM011500 35010KT P6SM SCT100
     FM011900 17007KT P6SM FEW080 BKN100
     FM020500 32006KT P6SM FEW100=



000
FTUS45 KVEF 011120
TAFLAS
TAF
KLAS 011120Z 0112/0212 VRB05KT P6SM SCT100 BKN140
     FM011700 03005KT P6SM SCT080 BKN120
     FM012100 14006KT P6SM VCSH SCT080 BKN120
     FM020300 21005KT P6SM FEW080 SCT120=



000
FTUS45 KVEF 011120
TAFDAG
TAF
KDAG 011120Z 0112/0212 25008KT P6SM SCT100
     FM011800 32006KT P6SM SCT100
     FM012100 06008KT P6SM SCT100
     FM020300 24008KT P6SM FEW100=



000
FTUS45 KVEF 011120
TAFLAS
TAF
KLAS 011120Z 0112/0212 VRB05KT P6SM SCT100 BKN140
     FM011700 03005KT P6SM SCT080 BKN120
     FM012100 14006KT P6SM VCSH SCT080 BKN120
     FM020300 21005KT P6SM FEW080 SCT120=



000
FTUS45 KVEF 010846 AAA
TAFLAS
TAF AMD
KLAS 010846Z 0109/0206 VRB05KT P6SM SCT100 BKN140
     FM011700 03005KT P6SM SCT080 BKN120
     FM012100 14006KT P6SM SCT080 BKN120
     FM020300 21007KT P6SM FEW080 SCT120=



000
FTUS45 KVEF 010527
TAFEED
TAF
KEED 010527Z 0106/0206 35010KT P6SM FEW060 SCT100
     FM011500 02007KT P6SM SCT100
     FM020300 VRB05KT P6SM SCT100=



000
FTUS45 KVEF 010527
TAFLAS
TAF
KLAS 010527Z 0106/0206 30007KT P6SM FEW060 BKN100 BKN140
     FM011700 03005KT P6SM SCT080 BKN120
     FM012100 14006KT P6SM SCT080 BKN120
     FM020300 21007KT P6SM FEW080 SCT120=



000
FTUS45 KVEF 010527
TAFVGT
TAF
KVGT 010527Z 0106/0206 36006KT P6SM SCT080 BKN120
     FM010900 35010G18KT P6SM SCT100 BKN120
     FM011800 03008KT P6SM SCT100 BKN120
     FM020300 04005KT P6SM FEW100 SCT120=



000
FTUS45 KVEF 010527
TAFBIH
TAF
KBIH 010527Z 0106/0206 35012KT P6SM OVC100
     FM011400 35010KT P6SM SCT100
     FM011900 17007KT P6SM FEW080 BKN100=



000
FTUS45 KVEF 010527
TAFDAG
TAF
KDAG 010527Z 0106/0206 25008KT P6SM SCT100
     FM011800 32006KT P6SM SCT100
     FM012100 06008KT P6SM SCT100
     FM020300 24008KT P6SM FEW100=



000
FTUS45 KVEF 010421 AAC
TAFLAS
TAF AMD
KLAS 010421Z 0104/0124 VRB05KT P6SM -SHRA BKN070 BKN100
     FM010600 21006KT P6SM SCT070 BKN100
     FM010800 02007KT P6SM SCT100 BKN250=



000
FTUS45 KVEF 010302 AAB
TAFLAS
TAF AMD
KLAS 010302Z 0103/0124 VRB05KT P6SM FEW070 BKN100 BKN200
     FM010500 21006KT P6SM SCT070 BKN100
     FM010800 02007KT P6SM SCT100 BKN250=



000
FTUS45 KVEF 010302 AAB
TAFLAS
TAF AMD
KLAS 010302Z 0103/0124 VRB05KT P6SM FEW070 BKN100 BKN200
     FM010500 21006KT P6SM SCT070 BKN100
     FM010800 02007KT P6SM SCT100 BKN250=



000
FTUS45 KVEF 010059 AAA
TAFVGT
TAF AMD
KVGT 010059Z 0101/0124 VRB05KT P6SM VCSH FEW040 BKN060 OVC100
     FM010200 02007KT P6SM VCSH BKN060 BKN120
     FM010900 35012G20KT P6SM SCT100 BKN250=



000
FTUS45 KVEF 010059 AAA
TAFLAS
TAF AMD
KLAS 010059Z 0101/0124 VRB05KT P6SM VCSH FEW030 BKN050 OVC100
     FM010200 05007KT P6SM VCSH BKN040 OVC080
     FM010500 02007KT P6SM SCT100 BKN250=



000
FTUS45 KVEF 302327
TAFLAS
TAF
KLAS 302327Z 0100/0124 01010KT P6SM VCSH FEW020 BKN050 BKN090
      TEMPO 0100/0102 5SM TSRA BR FEW020 BKN030CB OVC050
     FM010200 05008KT P6SM VCSH BKN040 OVC080
     FM010500 02007KT P6SM SCT100 BKN250=



000
FTUS45 KVEF 302327
TAFEED
TAF
KEED 302327Z 0100/0124 06010KT P6SM VCSH SCT050 BKN080
     FM010500 34007KT P6SM SCT060 BKN120=



000
FTUS45 KVEF 302327
TAFDAG
TAF
KDAG 302327Z 0100/0124 01014KT P6SM VCSH OVC060
     FM010600 25011KT P6SM BKN100=



000
FTUS45 KVEF 302327
TAFEED
TAF
KEED 302327Z 0100/0124 06010KT P6SM VCSH SCT050 BKN080
     FM010500 34007KT P6SM SCT060 BKN120=



000
FTUS45 KVEF 302327
TAFBIH
TAF
KBIH 302327Z 0100/0124 36020G30KT P6SM BKN100
     FM010600 35015G25KT P6SM VCSH BKN060=



000
FTUS45 KVEF 302327
TAFVGT
TAF
KVGT 302327Z 0100/0124 33011KT P6SM BKN060 BKN100
      TEMPO 0100/0102 5SM TSRA BR FEW020 BKN030CB OVC050
     FM010200 02008KT P6SM VCSH BKN060 BKN120
     FM010900 35012G20KT P6SM SCT100 BKN250=



000
FTUS45 KVEF 302327
TAFBIH
TAF
KBIH 302327Z 0100/0124 36020G30KT P6SM BKN100
     FM010600 35015G25KT P6SM VCSH BKN060=



000
FTUS45 KVEF 302327
TAFDAG
TAF
KDAG 302327Z 0100/0124 01014KT P6SM VCSH OVC060
     FM010600 25011KT P6SM BKN100=



000
FTUS45 KVEF 302327
TAFLAS
TAF
KLAS 302327Z 0100/0124 01010KT P6SM VCSH FEW020 BKN050 BKN090
      TEMPO 0100/0102 5SM TSRA BR FEW020 BKN030CB OVC050
     FM010200 05008KT P6SM VCSH BKN040 OVC080
     FM010500 02007KT P6SM SCT100 BKN250=



000
FTUS45 KVEF 302327
TAFVGT
TAF
KVGT 302327Z 0100/0124 33011KT P6SM BKN060 BKN100
      TEMPO 0100/0102 5SM TSRA BR FEW020 BKN030CB OVC050
     FM010200 02008KT P6SM VCSH BKN060 BKN120
     FM010900 35012G20KT P6SM SCT100 BKN250=



000
FTUS45 KVEF 302140 AAB
TAFLAS
TAF AMD
KLAS 302140Z 3022/0118 35010KT P6SM VCSH FEW020 BKN050 BKN090
      TEMPO 3023/0102 5SM SHRA BR FEW020 BKN030 OVC050
     FM010200 05008KT P6SM VCSH BKN040 OVC080
     FM010500 02007KT P6SM SCT100 BKN250=



000
FTUS45 KVEF 302140 AAA
TAFVGT
TAF AMD
KVGT 302140Z 3022/0118 33011KT P6SM BKN060 BKN100
      TEMPO 3023/0102 5SM SHRA BR FEW020 BKN030 OVC050
     FM010200 02008KT P6SM VCSH BKN060 BKN120
     FM010900 35012G20KT P6SM SCT100 BKN250=



000
FTUS45 KVEF 302113 AAA
TAFEED
TAF AMD
KEED 302113Z 3021/0118 06010KT P6SM VCSH SCT050 BKN080
     FM010500 34007KT P6SM SCT060 BKN120=



000
FTUS45 KVEF 302113 AAA
TAFDAG
TAF AMD
KDAG 302113Z 3021/0118 25008KT P6SM VCSH OVC060
     FM010600 25011KT P6SM BKN100=



000
FTUS45 KVEF 302056 AAA
TAFLAS
TAF AMD
KLAS 302056Z 3021/0118 35010KT P6SM VCSH FEW030 BKN050 BKN090
     FM010200 05008KT P6SM VCSH BKN040 OVC080
     FM010500 02007KT P6SM SCT100 BKN250=



000
FTUS45 KVEF 301737
TAFBIH
TAF
KBIH 301737Z 3018/0118 36025G35KT P6SM BKN060 BKN100
     FM302200 36020G30KT P6SM BKN100
     FM010600 35015G25KT P6SM VCSH BKN060=



000
FTUS45 KVEF 301737
TAFEED
TAF
KEED 301737Z 3018/0118 35015G24KT P6SM VCSH SCT050 BKN080
     FM010300 02009KT P6SM SCT060 BKN120=



000
FTUS45 KVEF 301737
TAFDAG
TAF
KDAG 301737Z 3018/0118 28010KT P6SM VCSH BKN050 OVC070
     FM301900 34020G28KT P6SM VCSH OVC070
     FM010200 VRB06KT P6SM OVC100
     FM010600 24011KT P6SM BKN100=



000
FTUS45 KVEF 301737
TAFLAS
TAF
KLAS 301737Z 3018/0118 36008KT P6SM VCSH FEW030 BKN040 OVC050
      TEMPO 3018/3019 4SM -SHRA BR
     FM010200 05008KT P6SM VCSH BKN080 OVC120
     FM010500 02006KT P6SM SCT100 BKN250=



000
FTUS45 KVEF 301737
TAFVGT
TAF
KVGT 301737Z 3018/0118 33011KT P6SM BKN060 OVC100
     FM010100 02008KT P6SM VCSH BKN080 BKN120
     FM010900 35012G20KT P6SM SCT100 BKN250=



000
FTUS45 KVEF 301434 AAB
TAFLAS
TAF AMD
KLAS 301434Z 3015/0112 35010KT P6SM -SHRA FEW040 OVC050
      TEMPO 3015/3017 4SM RA
     FM301800 02008KT P6SM VCSH BKN060 OVC100
     FM302100 05008KT P6SM VCSH BKN080 OVC120
     FM010500 36008KT P6SM SCT100 BKN250=



000
FTUS45 KVEF 301312 AAA
TAFDAG
TAF AMD
KDAG 301312Z 3013/0112 29015KT P6SM VCSH FEW070 BKN120
     FM301600 29022G32KT P6SM VCSH BKN070
     FM302100 33015G25KT P6SM VCSH BKN100
     FM010300 26011KT P6SM BKN250=



000
FTUS45 KVEF 301312 AAA
TAFDAG
TAF AMD
KDAG 301312Z 3013/0112 29015KT P6SM VCSH FEW070 BKN120
     FM301600 29022G32KT P6SM VCSH BKN070
     FM302100 33015G25KT P6SM VCSH BKN100
     FM010300 26011KT P6SM BKN250=



000
FTUS45 KVEF 301303 AAA
TAFVGT
TAF AMD
KVGT 301303Z 3013/0112 34015KT P6SM -SHRA BKN040 OVC060
     FM301800 01010KT P6SM VCSH BKN060 OVC100
     FM302100 04008KT P6SM VCSH BKN080 BKN120
     FM010500 35012G20KT P6SM SCT100 BKN250=



000
FTUS45 KVEF 301303 AAA
TAFVGT
TAF AMD
KVGT 301303Z 3013/0112 34015KT P6SM -SHRA BKN040 OVC060
     FM301800 01010KT P6SM VCSH BKN060 OVC100
     FM302100 04008KT P6SM VCSH BKN080 BKN120
     FM010500 35012G20KT P6SM SCT100 BKN250=



000
FTUS45 KVEF 301302 AAA
TAFLAS
TAF AMD
KLAS 301302Z 3013/0112 34015KT P6SM -SHRA BKN040 OVC060
     FM301500 36010KT P6SM -SHRA BKN050 OVC080
     FM301800 02008KT P6SM VCSH BKN060 OVC100
     FM302100 05008KT P6SM VCSH BKN080 OVC120
     FM010500 36008KT P6SM SCT100 BKN250=



000
FTUS45 KVEF 301302 AAA
TAFLAS
TAF AMD
KLAS 301302Z 3013/0112 34015KT P6SM -SHRA BKN040 OVC060
     FM301500 36010KT P6SM -SHRA BKN050 OVC080
     FM301800 02008KT P6SM VCSH BKN060 OVC100
     FM302100 05008KT P6SM VCSH BKN080 OVC120
     FM010500 36008KT P6SM SCT100 BKN250=



000
FTUS45 KVEF 301126
TAFDAG
TAF
KDAG 301126Z 3012/0112 25020G30KT P6SM FEW070
     FM301600 28025G35KT P6SM VCSH BKN070
     FM302100 33015G25KT P6SM VCSH BKN100
     FM010300 26011KT P6SM BKN250=



000
FTUS45 KVEF 301126
TAFLAS
TAF
KLAS 301126Z 3012/0112 35015G25KT P6SM -SHRA BKN050 OVC080
     FM301400 36010KT P6SM -SHRA BKN050 OVC080
     FM301800 02008KT P6SM VCSH BKN060 OVC100
     FM302100 05008KT P6SM VCSH BKN080 OVC120
     FM010500 36008KT P6SM SCT100 BKN250=



000
FTUS45 KVEF 301126
TAFVGT
TAF
KVGT 301126Z 3012/0112 35015G25KT P6SM -SHRA BKN050 OVC080
     FM301800 01010KT P6SM VCSH BKN060 OVC100
     FM302100 04008KT P6SM VCSH BKN080 BKN120
     FM010500 35012G20KT P6SM SCT100 BKN250=



000
FTUS45 KVEF 301126
TAFBIH
TAF
KBIH 301126Z 3012/0112 35015G25KT P6SM VCSH OVC050
     FM301300 36025G35KT P6SM VCSH BKN060 BKN100
     FM302200 36020G30KT P6SM BKN060
     FM010600 35015G25KT P6SM VCSH BKN060=



000
FTUS45 KVEF 301126
TAFEED
TAF
KEED 301126Z 3012/0112 26011KT P6SM SCT120 BKN200
     FM301400 35012G20KT P6SM VCSH SCT050 BKN080
     FM010300 02009KT P6SM SCT060 BKN120=



000
FTUS45 KVEF 301126
TAFVGT
TAF
KVGT 301126Z 3012/0112 35015G25KT P6SM -SHRA BKN050 OVC080
     FM301800 01010KT P6SM VCSH BKN060 OVC100
     FM302100 04008KT P6SM VCSH BKN080 BKN120
     FM010500 35012G20KT P6SM SCT100 BKN250=



000
FTUS45 KVEF 301126
TAFLAS
TAF
KLAS 301126Z 3012/0112 35015G25KT P6SM -SHRA BKN050 OVC080
     FM301400 36010KT P6SM -SHRA BKN050 OVC080
     FM301800 02008KT P6SM VCSH BKN060 OVC100
     FM302100 05008KT P6SM VCSH BKN080 OVC120
     FM010500 36008KT P6SM SCT100 BKN250=



000
FTUS45 KVEF 301126
TAFEED
TAF
KEED 301126Z 3012/0112 26011KT P6SM SCT120 BKN200
     FM301400 35012G20KT P6SM VCSH SCT050 BKN080
     FM010300 02009KT P6SM SCT060 BKN120=



000
FTUS45 KVEF 301126
TAFDAG
TAF
KDAG 301126Z 3012/0112 25020G30KT P6SM FEW070
     FM301600 28025G35KT P6SM VCSH BKN070
     FM302100 33015G25KT P6SM VCSH BKN100
     FM010300 26011KT P6SM BKN250=



000
FTUS45 KVEF 301126
TAFBIH
TAF
KBIH 301126Z 3012/0112 35015G25KT P6SM VCSH OVC050
     FM301300 36025G35KT P6SM VCSH BKN060 BKN100
     FM302200 36020G30KT P6SM BKN060
     FM010600 35015G25KT P6SM VCSH BKN060=



000
FTUS45 KVEF 300837 AAC
TAFLAS
TAF AMD
KLAS 300837Z 3009/0106 35012G18KT P6SM -SHRA BKN080 OVC100
     FM301000 01010KT P6SM -SHRA BKN050 OVC080
     FM302200 05008KT P6SM VCSH BKN080 OVC120
     FM010500 36007KT P6SM BKN100=



000
FTUS45 KVEF 300744 AAB
TAFLAS
TAF AMD
KLAS 300744Z 3008/0106 02012KT P6SM VCSH SCT080 OVC100
     FM301000 01010KT P6SM -SHRA BKN050 OVC080
     FM302200 05008KT P6SM VCSH BKN080 OVC120
     FM010500 36007KT P6SM BKN100=



000
FTUS45 KVEF 300629 AAA
TAFLAS
TAF AMD
KLAS 300629Z 3006/0106 04009KT P6SM SCT100 BKN150
     FM300700 34012KT P6SM VCSH SCT090 BKN120
     FM300900 35010KT P6SM -SHRA BKN060 OVC090
     FM302100 05008KT P6SM VCSH BKN060 BKN090=



000
FTUS45 KVEF 300520
TAFBIH
TAF
KBIH 300520Z 3006/0106 35015G25KT P6SM SCT060 OVC120
     FM300900 35015G25KT P6SM VCSH BKN060 OVC100
      TEMPO 3009/3013 -SHRA SCT040 OVC060
     FM301300 36025G35KT P6SM VCSH BKN060 BKN100
     FM302200 36020G30KT P6SM BKN060=



000
FTUS45 KVEF 300520
TAFDAG
TAF
KDAG 300520Z 3006/0106 25024G35KT P6SM SCT250
     FM301000 25020G30KT P6SM FEW070
     FM301600 26025G35KT P6SM VCSH BKN070
     FM010300 26011KT P6SM BKN100=



000
FTUS45 KVEF 300520
TAFLAS
TAF
KLAS 300520Z 3006/0106 21008KT P6SM SCT100 BKN150
     FM300700 28012KT P6SM VCSH SCT090 BKN120
     FM300900 35010KT P6SM -SHRA BKN060 OVC090
     FM302100 05008KT P6SM VCSH BKN060 BKN090=



000
FTUS45 KVEF 300520
TAFBIH
TAF
KBIH 300520Z 3006/0106 35015G25KT P6SM SCT060 OVC120
     FM300900 35015G25KT P6SM VCSH BKN060 OVC100
      TEMPO 3009/3013 -SHRA SCT040 OVC060
     FM301300 36025G35KT P6SM VCSH BKN060 BKN100
     FM302200 36020G30KT P6SM BKN060=



000
FTUS45 KVEF 300520
TAFEED
TAF
KEED 300520Z 3006/0106 26011KT P6SM SCT120 BKN200
     FM301500 36012G20KT P6SM VCSH SCT060 BKN100
     FM010300 02009KT P6SM SCT060 BKN120=



000
FTUS45 KVEF 300520
TAFVGT
TAF
KVGT 300520Z 3006/0106 35008KT P6SM SCT100 BKN150
     FM300700 34012KT P6SM VCSH SCT090 BKN120
     FM300900 35010KT P6SM -SHRA BKN060 OVC090
     FM302100 05008KT P6SM VCSH BKN060 BKN090=



000
FTUS45 KVEF 300253 AAB
TAFLAS
TAF AMD
KLAS 300253Z 3003/3024 22008KT P6SM FEW130 SCT250
     FM300700 22010KT P6SM VCSH SCT090 BKN130
     FM300900 35014KT P6SM -SHRA SCT060 BKN090
     FM302100 05008KT P6SM VCSH SCT050 BKN100=



000
FTUS45 KVEF 300111 AAA
TAFBIH
TAF AMD
KBIH 300111Z 3001/3024 29011KT P6SM SCT120
     FM300600 35012KT P6SM SCT120
     FM301200 36012KT P6SM VCSH SCT080 OVC100
     FM301800 02018G25KT P6SM BKN100=



000
FTUS45 KVEF 300111 AAA
TAFBIH
TAF AMD
KBIH 300111Z 3001/3024 29011KT P6SM SCT120
     FM300600 35012KT P6SM SCT120
     FM301200 36012KT P6SM VCSH SCT080 OVC100
     FM301800 02018G25KT P6SM BKN100=



000
FTUS45 KVEF 300111 AAA
TAFDAG
TAF AMD
KDAG 300111Z 3001/3024 26024G32KT P6SM SCT250
     FM301200 26015KT P6SM SKC
     FM301600 30012G18KT P6SM SCT120 SCT250=



000
FTUS45 KVEF 300110 AAA
TAFVGT
TAF AMD
KVGT 300110Z 3001/3024 15010KT P6SM SCT120
     FM300300 24008KT P6SM SCT120 BKN180
     FM300900 35010KT P6SM VCSH SCT060 BKN100
     FM301200 35009KT P6SM -RA FEW040 BKN050 OVC100
     FM302100 05008KT P6SM VCSH SCT050 BKN100=



000
FTUS45 KVEF 300109 AAA
TAFLAS
TAF AMD
KLAS 300109Z 3001/3024 08008KT P6SM SCT110 SCT250
     FM300145 24010KT P6SM SCT110 SCT250
     FM300300 22011KT P6SM SCT100 BKN150
     FM300900 35014KT P6SM VCSH SCT060 BKN100
     FM301200 35012KT P6SM -RA FEW040 BKN050 OVC090
     FM302100 05008KT P6SM VCSH SCT050 BKN100=



000
FTUS45 KVEF 292335
TAFVGT
TAF
KVGT 292335Z 3000/3024 22008G16KT P6SM SCT120
     FM300300 24011KT P6SM SCT120 BKN180
     FM300900 35010KT P6SM VCSH SCT060 BKN100
     FM301200 35009KT P6SM -RA FEW040 BKN050 OVC100
     FM302100 05008KT P6SM VCSH SCT050 BKN100=



000
FTUS45 KVEF 292335
TAFLAS
TAF
KLAS 292335Z 3000/3024 23010G18KT P6SM SCT110 SCT250
     FM300300 22011KT P6SM SCT100 BKN150
     FM300900 35014KT P6SM VCSH SCT060 BKN100
     FM301200 35012KT P6SM -RA FEW040 BKN050 OVC090
     FM302100 05008KT P6SM VCSH SCT050 BKN100=



000
FTUS45 KVEF 292335
TAFBIH
TAF
KBIH 292335Z 3000/3024 VRB06KT P6SM SCT120
     FM300600 35012KT P6SM SCT120
     FM301200 36012KT P6SM VCSH SCT080 OVC100
     FM301800 02018G25KT P6SM BKN100=



000
FTUS45 KVEF 292335
TAFDAG
TAF
KDAG 292335Z 3000/3024 27015G24KT P6SM SKC
     FM300300 27024G32KT P6SM SCT250
     FM301200 26015KT P6SM SKC
     FM301600 30012G18KT P6SM SCT120 SCT250=



000
FTUS45 KVEF 292335
TAFEED
TAF
KEED 292335Z 3000/3024 23010KT P6SM FEW120
     FM300900 22012KT P6SM SCT120
     FM301800 25012KT P6SM OVC100
     FM302100 33008KT P6SM VCSH SCT070 OVC100=



000
FTUS45 KVEF 292050 AAA
TAFLAS
TAF AMD
KLAS 292050Z 2921/3018 VRB06KT P6SM VCSH FEW080 SCT100 BKN250
     FM300000 23010G18KT P6SM FEW080 SCT100 BKN250
     FM300300 22011KT P6SM SCT100 BKN150
     FM300900 35014KT P6SM -RA SCT060 BKN100
     FM301200 35012KT P6SM -RA FEW040 BKN050 OVC090=



000
FTUS45 KVEF 291735
TAFEED
TAF
KEED 291735Z 2918/3018 30006KT P6SM SCT120
     FM292100 23010KT P6SM SCT120
     FM300900 19012KT P6SM SCT120=



000
FTUS45 KVEF 291735
TAFBIH
TAF
KBIH 291735Z 2918/3018 35012G22KT P6SM SCT120
     FM300600 34018G28KT P6SM SCT120
     FM301200 34018G28KT P6SM SCT080 OVC100=



000
FTUS45 KVEF 291735
TAFDAG
TAF
KDAG 291735Z 2918/3018 27015KT P6SM FEW120
     FM292100 27015G24KT P6SM FEW120
     FM300000 27024G32KT P6SM SCT120 SCT250
     FM301600 34012G18KT P6SM SCT120 SCT250=



000
FTUS45 KVEF 291735
TAFVGT
TAF
KVGT 291735Z 2918/3018 15006KT P6SM FEW090 FEW250
     FM292100 22008G16KT P6SM SCT120
     FM300300 24011KT P6SM SCT120 BKN180
     FM300900 35010KT P6SM SCT100 BKN120=



000
FTUS45 KVEF 291735
TAFLAS
TAF
KLAS 291735Z 2918/3018 VRB06KT P6SM FEW100
     FM292100 23010G18KT P6SM SCT100
     FM300300 22011KT P6SM SCT100 BKN150
     FM300900 35014KT P6SM SCT060 BKN100=



000
FTUS45 KVEF 291735
TAFVGT
TAF
KVGT 291735Z 2918/3018 15006KT P6SM FEW090 FEW250
     FM292100 22008G16KT P6SM SCT120
     FM300300 24011KT P6SM SCT120 BKN180
     FM300900 35010KT P6SM SCT100 BKN120=



000
FTUS45 KVEF 291735
TAFLAS
TAF
KLAS 291735Z 2918/3018 VRB06KT P6SM FEW100
     FM292100 23010G18KT P6SM SCT100
     FM300300 22011KT P6SM SCT100 BKN150
     FM300900 35014KT P6SM SCT060 BKN100=



000
FTUS45 KVEF 291444 AAA
TAFLAS
TAF AMD
KLAS 291444Z 2915/3012 VRB06KT P6SM FEW100
     FM292100 23010G18KT P6SM SCT100
     FM300300 22011KT P6SM SCT100 BKN150
     FM300900 35014KT P6SM SCT080 BKN100=



000
FTUS45 KVEF 291120
TAFBIH
TAF
KBIH 291120Z 2912/3012 35007KT P6SM SCT120
     FM291800 35012G22KT P6SM SCT120
     FM300600 34018G28KT P6SM SCT120=



000
FTUS45 KVEF 291120
TAFLAS
TAF
KLAS 291120Z 2912/3012 VRB06KT P6SM FEW080 FEW250
     FM292100 23012G18KT P6SM SCT110
     FM300300 22011KT P6SM SCT100 BKN150
     FM300900 35014KT P6SM SCT080 BKN100=



000
FTUS45 KVEF 291120
TAFVGT
TAF
KVGT 291120Z 2912/3012 35007KT P6SM FEW090 FEW250
     FM292100 24008G16KT P6SM SCT120
     FM300300 24011KT P6SM SCT120 BKN180
     FM300900 35010KT P6SM SCT100 BKN120=



000
FTUS45 KVEF 291120
TAFLAS
TAF
KLAS 291120Z 2912/3012 VRB06KT P6SM FEW080 FEW250
     FM292100 23012G18KT P6SM SCT110
     FM300300 22011KT P6SM SCT100 BKN150
     FM300900 35014KT P6SM SCT080 BKN100=



000
FTUS45 KVEF 291120
TAFDAG
TAF
KDAG 291120Z 2912/3012 26015KT P6SM FEW120
     FM292100 27015G24KT P6SM FEW120
     FM300000 27024G32KT P6SM SCT120 SCT250=



000
FTUS45 KVEF 291120
TAFEED
TAF
KEED 291120Z 2912/3012 30006KT P6SM SCT120
     FM292100 23010KT P6SM SCT120=



000
FTUS45 KVEF 291120
TAFDAG
TAF
KDAG 291120Z 2912/3012 26015KT P6SM FEW120
     FM292100 27015G24KT P6SM FEW120
     FM300000 27024G32KT P6SM SCT120 SCT250=



000
FTUS45 KVEF 291120
TAFVGT
TAF
KVGT 291120Z 2912/3012 35007KT P6SM FEW090 FEW250
     FM292100 24008G16KT P6SM SCT120
     FM300300 24011KT P6SM SCT120 BKN180
     FM300900 35010KT P6SM SCT100 BKN120=



000
FTUS45 KVEF 291120
TAFBIH
TAF
KBIH 291120Z 2912/3012 35007KT P6SM SCT120
     FM291800 35012G22KT P6SM SCT120
     FM300600 34018G28KT P6SM SCT120=



000
FTUS45 KVEF 291120
TAFEED
TAF
KEED 291120Z 2912/3012 30006KT P6SM SCT120
     FM292100 23010KT P6SM SCT120=



000
FTUS45 KVEF 290903 AAA
TAFLAS
TAF AMD
KLAS 290903Z 2909/3006 VRB06KT P6SM FEW080 SCT120
     FM291000 VRB06KT P6SM FEW080 SCT120
     FM292100 23010KT P6SM FEW080 SCT120=



000
FTUS45 KVEF 290520
TAFEED
TAF
KEED 290520Z 2906/3006 VRB06KT P6SM SCT090 BKN120
     FM291200 35008KT P6SM SCT120
     FM292100 23010KT P6SM SCT120=



000
FTUS45 KVEF 290520
TAFLAS
TAF
KLAS 290520Z 2906/3006 VRB06KT P6SM FEW080 BKN120
     FM291000 VRB06KT P6SM FEW080 SCT120
     FM292100 23010KT P6SM FEW080 SCT120=



000
FTUS45 KVEF 290520
TAFBIH
TAF
KBIH 290520Z 2906/3006 35012KT P6SM SCT120=



000
FTUS45 KVEF 290520
TAFVGT
TAF
KVGT 290520Z 2906/3006 33008KT P6SM FEW060 BKN100
     FM291000 35010KT P6SM FEW070 SCT110
     FM292100 24008KT P6SM FEW070 SCT110=



000
FTUS45 KVEF 290520
TAFDAG
TAF
KDAG 290520Z 2906/3006 25017G25KT P6SM SCT100 BKN150
     FM291000 26015G25KT P6SM FEW150=



000
FTUS45 KVEF 290236 AAA
TAFEED
TAF AMD
KEED 290236Z 2903/2924 VRB06KT P6SM VCSH BKN070
     FM290500 VRB06KT P6SM SCT090 BKN120
     FM291200 35008KT P6SM SCT120
     FM292100 23010KT P6SM SCT120=



000
FTUS45 KVEF 290235 AAA
TAFVGT
TAF AMD
KVGT 290235Z 2903/2924 VRB06KT P6SM VCSH SCT050 BKN070
      TEMPO 2903/2905 33012G20KT -RA SCT050 BKN070
     FM290500 33008KT P6SM FEW060 BKN100
     FM291500 35010KT P6SM FEW070 SCT110
     FM292100 24008KT P6SM FEW070 SCT110=



000
FTUS45 KVEF 290234 AAA
TAFLAS
TAF AMD
KLAS 290234Z 2903/2924 VRB05KT P6SM VCSH SCT060 BKN090
      TEMPO 2903/2905 33012G20KT -RA SCT050 BKN060
     FM290500 31009KT P6SM FEW060 BKN100
     FM291500 VRB06KT P6SM FEW070 SCT110
     FM292100 23010KT P6SM FEW070 SCT110=



000
FTUS45 KVEF 290234 AAA
TAFLAS
TAF AMD
KLAS 290234Z 2903/2924 VRB05KT P6SM VCSH SCT060 BKN090
      TEMPO 2903/2905 33012G20KT -RA SCT050 BKN060
     FM290500 31009KT P6SM FEW060 BKN100
     FM291500 VRB06KT P6SM FEW070 SCT110
     FM292100 23010KT P6SM FEW070 SCT110=



000
FTUS45 KVEF 282326
TAFLAS
TAF
KLAS 282326Z 2900/2924 07007KT P6SM VCSH SCT050 BKN070
      TEMPO 2900/2902 VRB15G25KT -TSRA BKN050CB
     FM290400 31009KT P6SM FEW060 BKN100
     FM291500 VRB06KT P6SM FEW070 SCT110
     FM292100 23010KT P6SM FEW070 SCT110=



000
FTUS45 KVEF 282326
TAFDAG
TAF
KDAG 282326Z 2900/2924 25018G28KT P6SM SCT060 BKN100
     FM290400 25017G25KT P6SM SCT100 BKN150
     FM291000 26015G25KT P6SM FEW150=



000
FTUS45 KVEF 282326
TAFEED
TAF
KEED 282326Z 2900/2924 VRB06KT P6SM VCSH BKN070
      TEMPO 2900/2903 36015G25KT -TSRA BKN060CB
     FM290500 VRB06KT P6SM SCT090 BKN120
     FM291200 35008KT P6SM SCT120
     FM292100 23010KT P6SM SCT120=



000
FTUS45 KVEF 282326
TAFVGT
TAF
KVGT 282326Z 2900/2924 VRB06KT P6SM VCSH SCT050 BKN070
      TEMPO 2900/2902 36015G25KT -TSRA BKN050CB
     FM290400 33008KT P6SM FEW060 BKN100
     FM291500 35010KT P6SM FEW070 SCT110
     FM292100 24008KT P6SM FEW070 SCT110=



000
FTUS45 KVEF 282326
TAFBIH
TAF
KBIH 282326Z 2900/2924 36022G30KT P6SM SCT060 BKN100
     FM290400 35012KT P6SM SCT120=



000
FTUS45 KVEF 282225 AAB
TAFLAS
TAF AMD
KLAS 282225Z 2822/2918 08010KT P6SM VCSH SCT050 BKN070
      TEMPO 2823/2901 36015G25KT -TSRA BKN050CB
     FM290400 31007KT P6SM FEW060 BKN100
     FM291500 VRB06KT P6SM FEW070 SCT110=



000
FTUS45 KVEF 282225 AAB
TAFLAS
TAF AMD
KLAS 282225Z 2822/2918 08010KT P6SM VCSH SCT050 BKN070
      TEMPO 2823/2901 36015G25KT -TSRA BKN050CB
     FM290400 31007KT P6SM FEW060 BKN100
     FM291500 VRB06KT P6SM FEW070 SCT110=



000
FTUS45 KVEF 282038 AAA
TAFLAS
TAF AMD
KLAS 282038Z 2821/2918 08009KT P6SM VCSH SCT050 BKN070
      TEMPO 2821/2901 -SHRA BKN050
     FM290400 31007KT P6SM FEW060 BKN100
     FM291500 VRB06KT P6SM FEW070 SCT110=



000
FTUS45 KVEF 281727
TAFEED
TAF
KEED 281727Z 2818/2918 VRB06KT P6SM VCSH BKN070
      TEMPO 2818/2822 -SHRA BKN050
     FM290400 VRB06KT P6SM SCT090 BKN120
     FM291200 VRB06KT P6SM SCT120=



000
FTUS45 KVEF 281727
TAFLAS
TAF
KLAS 281727Z 2818/2918 35008KT P6SM VCSH SCT050 BKN070
      TEMPO 2821/2824 -SHRA BKN050
     FM290400 31007KT P6SM FEW060 BKN100
     FM291500 VRB06KT P6SM FEW070 SCT110=



000
FTUS45 KVEF 281727
TAFBIH
TAF
KBIH 281727Z 2818/2918 36022G30KT P6SM SCT060 BKN100
      TEMPO 2818/2820 BKN060
     FM290400 35012KT P6SM SCT120=



000
FTUS45 KVEF 281727
TAFVGT
TAF
KVGT 281727Z 2818/2918 33007KT P6SM VCSH SCT050 BKN070
      TEMPO 2821/2824 -SHRA BKN050
     FM290400 33008KT P6SM FEW060 BKN100
     FM291500 35010KT P6SM FEW070 SCT110=



000
FTUS45 KVEF 281727
TAFDAG
TAF
KDAG 281727Z 2818/2918 27022G30KT P6SM SCT060 BKN100
     FM290400 25017G25KT P6SM SCT100 BKN150
     FM291000 26015G25KT P6SM FEW150=



    US Dept of Commerce
    National Oceanic and Atmospheric Administration
    National Weather Service
    1325 East West Highway
    Silver Spring, MD 20910
    Page Author: NWS Internet Services Team
Disclaimer
Information Quality
Credits
Glossary
Privacy Policy
Freedom of Information Act (FOIA)
About Us
Career Opportunities